Time;durP1;ratioP1;P1;durP2;ratioP2;P2;SDS_P1;SDS_P2;PMS_P1;PMS_P2;Temp;Humidity;BMP_temperature;BMP_pressure;BME280_temperature;BME280_humidity;BME280_pressure;Samples;Min_cycle;Max_cycle;Signal;HPM_P1;HPM_P2
2022/03/27 00:02:09;;;;;;;36.00;12.73;;;;;;;;;;6296753;22;20169;-85
2022/03/27 00:05:15;;;;;;;34.10;13.00;;;;;;;;;;6299263;22;20165;-84
2022/03/27 00:08:20;;;;;;;37.57;14.03;;;;;;;;;;6294886;22;20184;-83
2022/03/27 00:11:28;;;;;;;31.93;12.83;;;;;;;;;;6316510;22;20207;-85
2022/03/27 00:14:33;;;;;;;30.87;12.73;;;;;;;;;;6297116;22;20165;-85
2022/03/27 00:17:39;;;;;;;33.97;12.63;;;;;;;;;;6296816;22;20747;-84
2022/03/27 00:20:44;;;;;;;36.40;12.70;;;;;;;;;;6315357;22;20270;-85
2022/03/27 00:23:49;;;;;;;34.10;13.93;;;;;;;;;;6315304;22;20166;-84
2022/03/27 00:26:56;;;;;;;37.40;13.50;;;;;;;;;;6297024;22;20152;-84
2022/03/27 00:30:01;;;;;;;37.07;12.73;;;;;;;;;;6298822;22;20252;-84
2022/03/27 00:33:06;;;;;;;35.20;12.07;;;;;;;;;;6298023;22;20169;-85
2022/03/27 00:36:14;;;;;;;33.73;12.70;;;;;;;;;;6297064;22;20169;-84
2022/03/27 00:39:19;;;;;;;39.73;14.13;;;;;;;;;;6298067;22;20164;-84
2022/03/27 00:42:25;;;;;;;32.80;12.53;;;;;;;;;;6295522;22;20634;-86
2022/03/27 00:45:30;;;;;;;37.03;12.93;;;;;;;;;;6297335;22;20157;-86
2022/03/27 00:48:36;;;;;;;30.17;12.23;;;;;;;;;;6297652;22;20165;-85
2022/03/27 00:51:41;;;;;;;35.00;12.17;;;;;;;;;;6297187;22;20169;-85
2022/03/27 00:54:46;;;;;;;32.70;11.97;;;;;;;;;;6314907;22;20173;-86
2022/03/27 00:57:52;;;;;;;31.93;12.60;;;;;;;;;;6296045;22;20549;-85
2022/03/27 01:01:04;;;;;;;33.13;12.10;;;;;;;;;;6295134;22;20189;-85
2022/03/27 01:04:10;;;;;;;31.33;11.80;;;;;;;;;;6296598;22;20180;-86
2022/03/27 01:07:19;;;;;;;39.37;12.37;;;;;;;;;;6296011;22;20165;-86
2022/03/27 01:10:24;;;;;;;31.63;11.60;;;;;;;;;;6297273;22;20184;-84
2022/03/27 01:13:30;;;;;;;34.37;12.00;;;;;;;;;;6296862;22;20612;-85
2022/03/27 01:16:39;;;;;;;35.30;12.93;;;;;;;;;;6293008;22;20600;-84
2022/03/27 01:19:46;;;;;;;35.03;13.00;;;;;;;;;;6296213;22;20205;-85
2022/03/27 01:22:53;;;;;;;33.90;12.80;;;;;;;;;;6297463;22;20199;-83
2022/03/27 01:25:58;;;;;;;31.87;11.90;;;;;;;;;;6298871;22;20165;-84
2022/03/27 01:29:03;;;;;;;32.50;12.03;;;;;;;;;;6315779;22;20226;-85
2022/03/27 01:32:11;;;;;;;26.97;11.40;;;;;;;;;;6295599;22;20692;-84
2022/03/27 01:35:16;;;;;;;34.17;12.50;;;;;;;;;;6297163;22;20165;-85
2022/03/27 01:38:22;;;;;;;27.83;11.50;;;;;;;;;;6297791;22;20203;-84
2022/03/27 01:41:28;;;;;;;27.40;10.80;;;;;;;;;;6296997;22;20248;-85
2022/03/27 01:44:33;;;;;;;33.03;11.97;;;;;;;;;;6298345;22;20180;-85
2022/03/27 01:47:38;;;;;;;31.80;12.90;;;;;;;;;;6298522;22;20173;-85
2022/03/27 01:50:43;;;;;;;30.17;11.63;;;;;;;;;;6296746;22;20619;-85
2022/03/27 01:53:50;;;;;;;29.90;11.30;;;;;;;;;;6297421;22;20164;-85
2022/03/27 01:56:55;;;;;;;33.70;12.40;;;;;;;;;;6296624;22;20162;-86
2022/03/27 02:00:00;;;;;;;30.30;11.33;;;;;;;;;;6296617;22;20688;-84
2022/03/27 02:03:05;;;;;;;35.13;11.53;;;;;;;;;;6296447;22;20161;-85
2022/03/27 02:06:10;;;;;;;30.73;10.97;;;;;;;;;;6296409;22;20244;-85
2022/03/27 02:09:16;;;;;;;29.47;10.60;;;;;;;;;;6296900;22;20189;-84
2022/03/27 02:12:21;;;;;;;29.90;11.77;;;;;;;;;;6297673;22;20165;-85
2022/03/27 02:15:26;;;;;;;32.03;10.77;;;;;;;;;;6297935;22;20168;-84
2022/03/27 02:18:56;;;;;;;30.00;10.97;;;;;;;;;;6298317;22;20166;-84
2022/03/27 02:22:01;;;;;;;35.60;10.73;;;;;;;;;;6314445;22;20188;-85
2022/03/27 02:25:09;;;;;;;32.93;11.43;;;;;;;;;;6297970;22;20263;-86
2022/03/27 02:28:14;;;;;;;33.50;11.40;;;;;;;;;;6297493;22;20178;-85
2022/03/27 02:31:19;;;;;;;28.80;10.57;;;;;;;;;;6297897;22;20199;-84
2022/03/27 02:34:24;;;;;;;26.73;11.93;;;;;;;;;;6298092;22;20165;-85
2022/03/27 02:37:29;;;;;;;33.70;11.90;;;;;;;;;;6297878;22;20560;-84
2022/03/27 02:40:36;;;;;;;31.57;10.30;;;;;;;;;;6296381;22;20165;-84
2022/03/27 02:43:41;;;;;;;29.03;10.57;;;;;;;;;;6298455;22;20264;-84
2022/03/27 02:46:47;;;;;;;33.80;11.10;;;;;;;;;;6296380;22;20166;-84
2022/03/27 02:49:52;;;;;;;30.63;11.03;;;;;;;;;;6298786;22;20164;-83
2022/03/27 02:52:59;;;;;;;30.13;11.17;;;;;;;;;;6298355;22;20661;-85
2022/03/27 02:56:06;;;;;;;27.27;11.03;;;;;;;;;;6296811;22;20210;-86
2022/03/27 02:59:12;;;;;;;42.37;12.27;;;;;;;;;;6299530;22;20144;-86
2022/03/27 03:02:17;;;;;;;32.03;10.50;;;;;;;;;;6297745;22;20200;-85
2022/03/27 03:05:22;;;;;;;28.97;10.97;;;;;;;;;;6299116;22;20180;-85
2022/03/27 03:08:28;;;;;;;30.43;11.27;;;;;;;;;;6299106;22;20208;-84
2022/03/27 03:11:35;;;;;;;32.30;11.13;;;;;;;;;;6316412;22;20176;-85
2022/03/27 03:14:40;;;;;;;32.50;10.87;;;;;;;;;;6298944;22;20165;-85
2022/03/27 03:17:44;;;;;;;29.10;10.00;;;;;;;;;;6298149;22;20157;-84
2022/03/27 03:20:50;;;;;;;28.50;10.73;;;;;;;;;;6298659;22;20176;-84
2022/03/27 03:23:55;;;;;;;32.20;10.63;;;;;;;;;;6317904;22;20181;-85
2022/03/27 03:27:02;;;;;;;29.23;11.10;;;;;;;;;;6300015;22;20180;-84
2022/03/27 03:30:08;;;;;;;27.57;10.57;;;;;;;;;;6297502;22;20639;-85
2022/03/27 03:33:14;;;;;;;26.53;10.33;;;;;;;;;;6299322;22;20157;-85
2022/03/27 03:36:21;;;;;;;27.63;11.73;;;;;;;;;;6299795;22;20203;-85
2022/03/27 03:39:25;;;;;;;27.40;10.07;;;;;;;;;;6301521;22;20169;-84
2022/03/27 03:42:32;;;;;;;27.53;10.73;;;;;;;;;;6318512;22;20546;-85
2022/03/27 03:45:38;;;;;;;28.17;10.50;;;;;;;;;;6318645;22;20241;-84
2022/03/27 03:48:44;;;;;;;34.03;11.30;;;;;;;;;;6319946;22;20632;-84
2022/03/27 03:51:49;;;;;;;22.10;9.97;;;;;;;;;;6301462;22;20176;-85
2022/03/27 03:54:54;;;;;;;29.77;10.93;;;;;;;;;;6319058;22;20197;-83
2022/03/27 03:58:01;;;;;;;33.93;11.90;;;;;;;;;;6317771;22;20161;-84
2022/03/27 04:01:06;;;;;;;30.90;10.17;;;;;;;;;;6302377;22;20210;-82
2022/03/27 04:04:13;;;;;;;28.23;11.07;;;;;;;;;;6299045;22;20283;-84
2022/03/27 04:07:49;;;;;;;25.80;9.67;;;;;;;;;;6298938;22;20150;-84
2022/03/27 04:10:54;;;;;;;28.80;10.73;;;;;;;;;;6318800;22;20166;-83
2022/03/27 04:14:00;;;;;;;30.77;10.63;;;;;;;;;;6301273;22;20287;-85
2022/03/27 04:17:07;;;;;;;39.93;11.50;;;;;;;;;;6299816;22;20662;-85
2022/03/27 04:20:12;;;;;;;30.63;10.67;;;;;;;;;;6316454;22;20161;-84
2022/03/27 04:23:17;;;;;;;31.03;10.93;;;;;;;;;;6298444;22;20201;-84
2022/03/27 04:26:22;;;;;;;25.63;9.93;;;;;;;;;;6298467;22;20165;-83
2022/03/27 04:29:28;;;;;;;29.90;10.33;;;;;;;;;;6318362;22;20223;-85
2022/03/27 04:32:34;;;;;;;32.47;11.07;;;;;;;;;;6300497;22;20165;-83
2022/03/27 04:35:39;;;;;;;27.13;9.97;;;;;;;;;;6296893;22;20160;-84
2022/03/27 04:38:44;;;;;;;34.50;10.13;;;;;;;;;;6317212;22;20149;-85
2022/03/27 04:41:48;;;;;;;28.43;9.60;;;;;;;;;;6317006;22;20189;-84
2022/03/27 04:44:55;;;;;;;27.43;10.93;;;;;;;;;;6316967;22;20169;-84
2022/03/27 04:48:00;;;;;;;29.10;10.63;;;;;;;;;;6298983;22;20169;-85
2022/03/27 04:51:05;;;;;;;29.50;9.90;;;;;;;;;;6299291;22;20169;-85
2022/03/27 04:54:09;;;;;;;26.50;10.07;;;;;;;;;;6318088;22;20164;-85
2022/03/27 04:57:14;;;;;;;34.73;10.67;;;;;;;;;;6317434;22;20169;-86
2022/03/27 05:00:20;;;;;;;33.70;10.87;;;;;;;;;;6299665;22;20620;-85
2022/03/27 05:03:25;;;;;;;32.30;10.37;;;;;;;;;;6298367;22;20214;-85
2022/03/27 05:06:30;;;;;;;32.63;11.23;;;;;;;;;;6299448;22;20161;-85
2022/03/27 05:09:36;;;;;;;32.20;10.73;;;;;;;;;;6313738;22;20180;-86
2022/03/27 05:12:41;;;;;;;32.07;10.30;;;;;;;;;;6297123;22;20500;-86
2022/03/27 05:15:48;;;;;;;34.50;9.93;;;;;;;;;;6315094;22;20173;-85
2022/03/27 05:18:53;;;;;;;42.70;15.70;;;;;;;;;;6297583;22;20169;-86
2022/03/27 05:21:58;;;;;;;49.90;16.83;;;;;;;;;;6318256;22;20196;-84
2022/03/27 05:25:02;;;;;;;34.87;11.67;;;;;;;;;;6296998;22;20216;-84
2022/03/27 05:28:08;;;;;;;35.97;12.20;;;;;;;;;;6313517;22;20161;-85
2022/03/27 05:31:15;;;;;;;30.00;10.53;;;;;;;;;;6297000;22;20228;-84
2022/03/27 05:34:20;;;;;;;38.20;10.90;;;;;;;;;;6297134;22;20164;-85
2022/03/27 05:37:25;;;;;;;25.90;9.60;;;;;;;;;;6296506;22;20168;-85
2022/03/27 05:40:30;;;;;;;32.00;10.70;;;;;;;;;;6316797;22;20255;-86
2022/03/27 05:43:35;;;;;;;24.73;9.27;;;;;;;;;;6298844;22;20192;-86
2022/03/27 05:46:42;;;;;;;27.70;9.73;;;;;;;;;;6313816;22;20206;-85
2022/03/27 05:49:47;;;;;;;27.97;10.23;;;;;;;;;;6298752;22;20212;-85
2022/03/27 05:52:52;;;;;;;25.90;11.10;;;;;;;;;;6298660;22;20631;-85
2022/03/27 05:55:59;;;;;;;26.27;10.40;;;;;;;;;;6297776;22;20208;-85
2022/03/27 05:59:04;;;;;;;38.60;13.77;;;;;;;;;;6317031;22;20164;-86
2022/03/27 06:02:10;;;;;;;37.77;12.27;;;;;;;;;;6296437;22;20652;-85
2022/03/27 06:05:17;;;;;;;27.70;10.67;;;;;;;;;;6298417;22;20200;-86
2022/03/27 06:08:22;;;;;;;36.00;9.90;;;;;;;;;;6298364;22;20165;-86
2022/03/27 06:11:28;;;;;;;25.43;9.47;;;;;;;;;;6298364;22;20172;-86
2022/03/27 06:14:34;;;;;;;22.20;9.57;;;;;;;;;;6317030;22;20247;-85
2022/03/27 06:17:42;;;;;;;31.37;9.50;;;;;;;;;;6319903;22;20511;-86
2022/03/27 06:20:47;;;;;;;26.20;10.37;;;;;;;;;;6298370;22;20211;-85
2022/03/27 06:23:52;;;;;;;28.60;10.30;;;;;;;;;;6300219;22;20235;-85
2022/03/27 06:26:57;;;;;;;27.00;9.90;;;;;;;;;;6317262;22;20168;-85
2022/03/27 06:30:05;;;;;;;28.87;10.13;;;;;;;;;;6298960;22;20531;-86
2022/03/27 06:33:13;;;;;;;30.97;10.80;;;;;;;;;;6298004;22;20234;-85
2022/03/27 06:36:18;;;;;;;25.67;11.00;;;;;;;;;;6297409;22;20173;-85
2022/03/27 06:39:24;;;;;;;27.63;10.43;;;;;;;;;;6299784;22;20154;-85
2022/03/27 06:42:29;;;;;;;26.43;9.90;;;;;;;;;;6316095;22;20192;-86
2022/03/27 06:45:34;;;;;;;29.30;9.70;;;;;;;;;;6297540;22;20276;-86
2022/03/27 06:48:40;;;;;;;31.43;11.03;;;;;;;;;;6315864;22;20236;-85
2022/03/27 06:51:45;;;;;;;29.07;10.67;;;;;;;;;;6297851;22;20165;-85
2022/03/27 06:54:50;;;;;;;31.57;10.90;;;;;;;;;;6295612;22;20616;-86
2022/03/27 06:57:57;;;;;;;32.07;10.63;;;;;;;;;;6298846;22;20169;-84
2022/03/27 07:04:26;;;;;;;28.13;10.80;;;;;;;;;;6299283;22;20205;-84
2022/03/27 07:07:31;;;;;;;27.80;10.83;;;;;;;;;;6299639;22;20600;-85
2022/03/27 07:10:37;;;;;;;25.90;10.63;;;;;;;;;;6298201;22;20503;-85
2022/03/27 07:13:42;;;;;;;35.63;11.90;;;;;;;;;;6299970;22;20280;-84
2022/03/27 07:16:47;;;;;;;28.67;10.83;;;;;;;;;;6298417;22;20229;-83
2022/03/27 07:19:54;;;;;;;31.33;11.13;;;;;;;;;;6297839;22;20168;-83
2022/03/27 07:23:00;;;;;;;32.20;11.30;;;;;;;;;;6298614;22;20227;-83
2022/03/27 07:26:05;;;;;;;33.37;12.80;;;;;;;;;;6298574;22;20169;-83
2022/03/27 07:29:11;;;;;;;33.83;12.63;;;;;;;;;;6300140;22;20141;-85
2022/03/27 07:32:17;;;;;;;30.73;11.30;;;;;;;;;;6301392;22;20168;-85
2022/03/27 07:35:25;;;;;;;31.33;11.77;;;;;;;;;;6301051;22;20494;-85
2022/03/27 07:38:31;;;;;;;35.53;11.50;;;;;;;;;;6300638;22;20160;-85
2022/03/27 07:41:36;;;;;;;34.07;11.50;;;;;;;;;;6302999;22;20196;-84
2022/03/27 07:44:41;;;;;;;28.30;12.37;;;;;;;;;;6299121;22;20260;-85
2022/03/27 07:47:46;;;;;;;28.07;12.00;;;;;;;;;;6301477;22;20169;-85
2022/03/27 07:50:54;;;;;;;32.60;11.77;;;;;;;;;;6319894;22;20160;-84
2022/03/27 07:54:00;;;;;;;33.70;11.90;;;;;;;;;;6307040;22;20165;-85
2022/03/27 07:57:05;;;;;;;41.70;12.17;;;;;;;;;;6303564;22;20165;-85
2022/03/27 08:00:11;;;;;;;32.20;11.50;;;;;;;;;;6313567;22;20280;-85
2022/03/27 08:03:19;;;;;;;27.60;11.60;;;;;;;;;;6316807;22;20197;-85
2022/03/27 08:06:25;;;;;;;29.80;12.67;;;;;;;;;;6297411;22;20723;-85
2022/03/27 08:09:30;;;;;;;36.57;13.17;;;;;;;;;;6315590;22;20189;-85
2022/03/27 08:12:36;;;;;;;24.70;11.57;;;;;;;;;;6297962;22;20169;-85
2022/03/27 08:15:41;;;;;;;26.13;11.53;;;;;;;;;;6297637;22;20169;-85
2022/03/27 08:18:46;;;;;;;31.83;12.43;;;;;;;;;;6316519;22;20161;-86
2022/03/27 08:21:53;;;;;;;33.67;12.90;;;;;;;;;;6316576;22;20169;-85
2022/03/27 08:25:00;;;;;;;28.35;11.77;;;;;;;;;;6299063;22;20165;-85
2022/03/27 08:28:04;;;;;;;28.85;11.48;;;;;;;;;;6298168;22;20161;-85
2022/03/27 08:31:12;;;;;;;25.90;12.13;;;;;;;;;;6316335;22;20185;-86
2022/03/27 08:34:17;;;;;;;23.80;11.13;;;;;;;;;;6296400;22;20234;-86
2022/03/27 08:37:26;;;;;;;27.33;11.85;;;;;;;;;;6297124;22;20181;-86
2022/03/27 08:40:31;;;;;;;29.70;12.35;;;;;;;;;;6316333;22;20165;-85
2022/03/27 08:43:36;;;;;;;24.35;12.18;;;;;;;;;;6315855;22;20630;-85
2022/03/27 08:46:42;;;;;;;22.77;12.10;;;;;;;;;;6296305;22;20541;-87
2022/03/27 08:49:55;;;;;;;20.35;11.57;;;;;;;;;;6298838;22;20167;-86
2022/03/27 08:53:03;;;;;;;27.02;12.20;;;;;;;;;;6297652;22;20205;-85
2022/03/27 08:56:09;;;;;;;20.23;11.82;;;;;;;;;;6316220;22;20173;-85
2022/03/27 08:59:15;;;;;;;20.38;11.50;;;;;;;;;;6297592;22;20243;-87
2022/03/27 09:02:23;;;;;;;24.83;11.35;;;;;;;;;;6317414;22;20169;-85
2022/03/27 09:05:28;;;;;;;32.45;13.00;;;;;;;;;;6317941;22;20503;-86
2022/03/27 09:08:36;;;;;;;25.35;12.63;;;;;;;;;;6299822;22;20234;-87
2022/03/27 09:11:41;;;;;;;20.55;11.93;;;;;;;;;;6298411;22;20160;-88
2022/03/27 09:14:50;;;;;;;25.42;12.95;;;;;;;;;;6297965;22;20191;-88
2022/03/27 09:18:04;;;;;;;21.20;11.77;;;;;;;;;;6297658;22;20172;-87
2022/03/27 09:21:09;;;;;;;17.95;11.55;;;;;;;;;;6298547;22;20168;-87
2022/03/27 09:24:17;;;;;;;21.42;11.38;;;;;;;;;;6297315;22;20499;-88
2022/03/27 09:27:29;;;;;;;17.40;10.82;;;;;;;;;;6297675;22;20619;-87
2022/03/27 09:30:36;;;;;;;21.55;10.73;;;;;;;;;;6315106;22;20202;-90
2022/03/27 09:33:49;;;;;;;18.67;11.05;;;;;;;;;;6298074;22;20193;-85
2022/03/27 09:36:55;;;;;;;15.60;9.63;;;;;;;;;;6295716;22;20165;-86
2022/03/27 09:40:03;;;;;;;16.98;9.52;;;;;;;;;;6314417;22;20240;-85
2022/03/27 09:43:12;;;;;;;12.40;7.55;;;;;;;;;;6315528;22;20177;-85
2022/03/27 09:46:17;;;;;;;17.92;7.22;;;;;;;;;;6314677;22;20166;-88
2022/03/27 09:49:25;;;;;;;11.85;6.65;;;;;;;;;;6314696;22;20166;-88
2022/03/27 09:52:32;;;;;;;10.68;5.68;;;;;;;;;;6314540;22;20165;-85
2022/03/27 09:55:40;;;;;;;9.15;5.65;;;;;;;;;;6314081;22;20173;-86
2022/03/27 09:58:46;;;;;;;7.25;4.35;;;;;;;;;;6299666;22;20284;-87
2022/03/27 10:01:51;;;;;;;9.63;5.05;;;;;;;;;;6297399;22;20628;-88
2022/03/27 10:05:07;;;;;;;11.20;6.00;;;;;;;;;;6317835;22;20247;-87
2022/03/27 10:08:13;;;;;;;9.18;5.18;;;;;;;;;;6316261;22;20284;-88
2022/03/27 10:11:21;;;;;;;9.85;4.70;;;;;;;;;;6314316;22;20161;-86
2022/03/27 10:14:25;;;;;;;11.10;5.30;;;;;;;;;;6296344;22;20177;-87
2022/03/27 10:17:32;;;;;;;9.95;5.47;;;;;;;;;;6315261;22;20207;-86
2022/03/27 10:20:38;;;;;;;13.48;6.05;;;;;;;;;;6297361;22;20169;-88
2022/03/27 10:23:46;;;;;;;25.08;8.60;;;;;;;;;;6315272;22;20266;-87
2022/03/27 10:26:55;;;;;;;13.68;7.20;;;;;;;;;;6294917;22;20161;-88
2022/03/27 10:30:03;;;;;;;14.57;6.93;;;;;;;;;;6295234;22;20180;-86
2022/03/27 10:33:08;;;;;;;13.35;6.25;;;;;;;;;;6314147;22;20172;-87
2022/03/27 10:36:16;;;;;;;11.98;6.65;;;;;;;;;;6315526;22;20630;-87
2022/03/27 10:39:25;;;;;;;13.48;6.35;;;;;;;;;;6314909;22;20165;-88
2022/03/27 10:42:36;;;;;;;12.55;6.93;;;;;;;;;;6296753;22;20169;-88
2022/03/27 10:45:41;;;;;;;17.08;9.15;;;;;;;;;;6314523;22;20161;-86
2022/03/27 10:48:47;;;;;;;17.25;10.27;;;;;;;;;;6297248;22;20286;-88
2022/03/27 10:52:04;;;;;;;22.85;10.70;;;;;;;;;;6297728;22;20244;-87
2022/03/27 10:55:11;;;;;;;19.77;10.32;;;;;;;;;;6296219;22;20531;-88
2022/03/27 10:58:31;;;;;;;17.83;9.23;;;;;;;;;;6297549;22;20160;-85
2022/03/27 11:01:41;;;;;;;17.88;9.70;;;;;;;;;;6317617;22;20156;-87
2022/03/27 11:04:46;;;;;;;16.15;8.95;;;;;;;;;;6317902;22;20164;-88
2022/03/27 11:07:51;;;;;;;19.92;9.30;;;;;;;;;;6317801;22;20164;-88
2022/03/27 11:10:59;;;;;;;17.48;8.85;;;;;;;;;;6298668;22;20169;-87
2022/03/27 11:14:06;;;;;;;19.13;9.88;;;;;;;;;;6315624;22;20184;-86
2022/03/27 11:17:13;;;;;;;15.45;9.15;;;;;;;;;;6318522;22;20195;-86
2022/03/27 11:20:36;;;;;;;15.20;9.23;;;;;;;;;;6298905;22;20160;-86
2022/03/27 11:23:42;;;;;;;19.98;10.15;;;;;;;;;;6299603;22;20168;-88
2022/03/27 11:26:50;;;;;;;15.30;9.10;;;;;;;;;;6316844;22;20160;-87
2022/03/27 11:30:10;;;;;;;18.35;10.50;;;;;;;;;;6313615;22;20152;-88
2022/03/27 11:33:18;;;;;;;22.23;9.57;;;;;;;;;;6317125;22;20215;-88
2022/03/27 11:36:23;;;;;;;16.63;9.95;;;;;;;;;;6317742;22;20164;-89
2022/03/27 11:39:33;;;;;;;17.23;8.80;;;;;;;;;;6317075;22;20168;-88
2022/03/27 11:42:38;;;;;;;17.90;9.40;;;;;;;;;;6298347;22;20169;-87
2022/03/27 11:45:43;;;;;;;17.55;8.88;;;;;;;;;;6297061;22;20172;-88
2022/03/27 11:48:55;;;;;;;15.02;9.35;;;;;;;;;;6317340;22;20152;-87
2022/03/27 11:52:07;;;;;;;17.38;8.90;;;;;;;;;;6298002;22;20172;-87
2022/03/27 11:55:12;;;;;;;14.00;8.70;;;;;;;;;;6315518;22;20248;-86
2022/03/27 11:58:20;;;;;;;14.32;8.70;;;;;;;;;;6317238;22;20168;-87
2022/03/27 12:01:25;;;;;;;13.48;9.02;;;;;;;;;;6314113;22;20271;-87
2022/03/27 12:04:33;;;;;;;14.20;8.68;;;;;;;;;;6316058;22;20144;-88
2022/03/27 12:07:52;;;;;;;18.23;9.10;;;;;;;;;;6297612;22;20275;-87
2022/03/27 12:10:59;;;;;;;15.85;9.00;;;;;;;;;;6297222;22;20661;-87
2022/03/27 12:14:11;;;;;;;16.48;9.38;;;;;;;;;;6314309;22;20188;-86
2022/03/27 12:21:47;;;;;;;15.07;9.50;;;;;;;;;;6316648;22;20198;-87
2022/03/27 12:24:52;;;;;;;17.70;8.77;;;;;;;;;;6315411;22;20164;-87
2022/03/27 12:31:24;;;;;;;16.52;8.48;;;;;;;;;;6317318;22;20241;-86
2022/03/27 12:34:30;;;;;;;17.27;9.18;;;;;;;;;;6315627;22;20227;-87
2022/03/27 12:37:44;;;;;;;16.90;8.68;;;;;;;;;;6324340;22;20204;-86
2022/03/27 12:40:51;;;;;;;16.20;8.98;;;;;;;;;;6314847;22;20161;-86
2022/03/27 12:43:59;;;;;;;15.60;9.75;;;;;;;;;;6296074;22;20428;-87
2022/03/27 12:47:05;;;;;;;16.73;9.68;;;;;;;;;;6312890;22;20495;-86
2022/03/27 12:50:11;;;;;;;18.10;9.18;;;;;;;;;;6314403;22;20161;-86
2022/03/27 12:53:27;;;;;;;16.98;9.25;;;;;;;;;;6316011;22;20161;-87
2022/03/27 12:56:33;;;;;;;16.65;8.52;;;;;;;;;;6295061;22;20207;-87
2022/03/27 12:59:43;;;;;;;17.60;9.95;;;;;;;;;;6314885;22;20152;-87
2022/03/27 13:02:48;;;;;;;16.45;8.85;;;;;;;;;;6315014;22;20510;-87
2022/03/27 13:06:01;;;;;;;15.45;9.43;;;;;;;;;;6297580;22;20172;-86
2022/03/27 13:09:08;;;;;;;19.90;9.55;;;;;;;;;;6316741;22;20184;-86
2022/03/27 13:12:13;;;;;;;16.35;9.10;;;;;;;;;;6314501;22;20164;-88
2022/03/27 13:15:33;;;;;;;18.25;9.95;;;;;;;;;;6313785;22;20184;-86
2022/03/27 13:19:03;;;;;;;14.23;9.30;;;;;;;;;;6314136;22;20165;-87
2022/03/27 13:22:08;;;;;;;17.30;9.63;;;;;;;;;;6297925;22;20295;-86
2022/03/27 13:25:15;;;;;;;16.33;9.15;;;;;;;;;;6310631;22;20189;-87
2022/03/27 13:28:20;;;;;;;15.38;8.98;;;;;;;;;;6297275;22;20164;-87
2022/03/27 13:31:26;;;;;;;15.25;9.50;;;;;;;;;;6295559;22;20188;-86
2022/03/27 13:34:31;;;;;;;16.10;8.95;;;;;;;;;;6314891;22;20253;-85
2022/03/27 13:37:36;;;;;;;16.77;9.15;;;;;;;;;;6298067;22;20165;-86
2022/03/27 13:44:06;;;;;;;20.05;9.32;;;;;;;;;;6314868;22;20169;-86
2022/03/27 13:47:11;;;;;;;15.40;8.65;;;;;;;;;;6314181;22;20235;-87
2022/03/27 13:50:16;;;;;;;17.08;7.93;;;;;;;;;;6314949;22;20164;-86
2022/03/27 13:53:21;;;;;;;15.20;7.88;;;;;;;;;;6313890;22;20169;-87
2022/03/27 13:56:28;;;;;;;19.15;8.75;;;;;;;;;;6315279;22;20165;-88
2022/03/27 13:59:33;;;;;;;19.10;9.07;;;;;;;;;;6313274;22;20165;-86
2022/03/27 14:02:38;;;;;;;12.93;8.15;;;;;;;;;;6314285;22;20161;-87
2022/03/27 14:05:43;;;;;;;16.15;8.63;;;;;;;;;;6315006;22;20210;-86
2022/03/27 14:08:49;;;;;;;16.17;8.52;;;;;;;;;;6315623;22;20200;-85
2022/03/27 14:11:55;;;;;;;15.93;8.98;;;;;;;;;;6317405;22;20161;-88
2022/03/27 14:15:02;;;;;;;14.65;8.77;;;;;;;;;;6297764;22;20185;-90
2022/03/27 14:18:35;;;;;;;15.85;8.80;;;;;;;;;;6299341;22;20171;-86
2022/03/27 14:21:40;;;;;;;15.40;7.93;;;;;;;;;;6298940;22;20161;-85
2022/03/27 14:24:49;;;;;;;17.85;8.93;;;;;;;;;;6298258;22;20169;-86
2022/03/27 14:27:56;;;;;;;14.13;8.45;;;;;;;;;;6298045;22;20161;-86
2022/03/27 14:31:01;;;;;;;19.95;8.45;;;;;;;;;;6315266;22;20188;-86
2022/03/27 14:34:05;;;;;;;14.73;8.73;;;;;;;;;;6298202;22;20166;-86
2022/03/27 14:37:10;;;;;;;16.25;9.10;;;;;;;;;;6317494;22;20353;-87
2022/03/27 14:40:16;;;;;;;17.45;8.63;;;;;;;;;;6315998;22;20161;-88
2022/03/27 22:34:26;;;;;;;26.13;10.00;;;;;;;;;;6304657;22;20209;-85
2022/03/27 22:37:31;;;;;;;19.93;10.07;;;;;;;;;;6315219;22;20168;-86
2022/03/27 22:40:37;;;;;;;21.47;10.50;;;;;;;;;;6314322;22;20161;-86
2022/03/27 22:43:42;;;;;;;20.17;10.00;;;;;;;;;;6294775;22;20658;-86
2022/03/27 22:46:47;;;;;;;20.33;10.03;;;;;;;;;;6295561;22;20220;-85
2022/03/27 22:49:53;;;;;;;16.97;9.03;;;;;;;;;;6296889;22;20192;-85
2022/03/27 22:52:58;;;;;;;23.23;10.40;;;;;;;;;;6314195;22;20165;-86
2022/03/27 22:56:04;;;;;;;19.97;10.20;;;;;;;;;;6295742;22;20303;-84
2022/03/27 22:59:09;;;;;;;23.40;9.67;;;;;;;;;;6295837;22;20651;-84
2022/03/27 23:02:14;;;;;;;20.53;10.43;;;;;;;;;;6314123;22;20165;-85
2022/03/27 23:05:21;;;;;;;18.43;9.37;;;;;;;;;;6295408;22;20173;-86
2022/03/27 23:08:25;;;;;;;20.87;9.83;;;;;;;;;;6313821;22;20605;-85
2022/03/27 23:11:30;;;;;;;24.37;9.57;;;;;;;;;;6313949;22;20169;-85
2022/03/27 23:14:35;;;;;;;21.00;9.93;;;;;;;;;;6315075;22;20207;-86
2022/03/27 23:17:40;;;;;;;21.90;10.30;;;;;;;;;;6312101;22;20623;-85
2022/03/27 23:20:46;;;;;;;22.67;10.67;;;;;;;;;;6295595;22;20205;-86
2022/03/27 23:23:51;;;;;;;22.70;11.13;;;;;;;;;;6295691;22;20353;-86
2022/03/27 23:26:57;;;;;;;21.07;10.70;;;;;;;;;;6295125;22;20182;-85
2022/03/27 23:30:02;;;;;;;24.20;10.33;;;;;;;;;;6313345;22;20229;-86
2022/03/27 23:33:08;;;;;;;22.53;10.33;;;;;;;;;;6295515;22;20526;-85
2022/03/27 23:36:15;;;;;;;24.53;11.03;;;;;;;;;;6312589;22;20236;-85
2022/03/27 23:39:20;;;;;;;23.47;10.50;;;;;;;;;;6296105;22;20183;-85
2022/03/27 23:42:25;;;;;;;27.37;10.70;;;;;;;;;;6296390;22;20239;-85
2022/03/27 23:45:29;;;;;;;18.80;10.03;;;;;;;;;;6295346;22;20518;-85
2022/03/27 23:48:34;;;;;;;23.57;10.83;;;;;;;;;;6294992;22;20206;-86
2022/03/27 23:51:41;;;;;;;22.63;10.50;;;;;;;;;;6311737;22;20165;-86
2022/03/27 23:54:46;;;;;;;25.53;10.00;;;;;;;;;;6312539;22;20145;-87
2022/03/27 23:57:51;;;;;;;21.60;10.40;;;;;;;;;;6294880;22;20239;-86
